Time;durP1;ratioP1;P1;durP2;ratioP2;P2;SDS_P1;SDS_P2;PMS_P1;PMS_P2;Temp;Humidity;BMP_temperature;BMP_pressure;BME280_temperature;BME280_humidity;BME280_pressure;Samples;Min_cycle;Max_cycle;Signal;HPM_P1;HPM_P2
2023/01/28 00:00:55;;;;;;;15.32;13.18;;;0.60;99.90;;;;;;5052412;28;20317;-75
2023/01/28 00:03:23;;;;;;;15.00;13.30;;;0.60;99.90;;;;;;5047904;28;20620;-75
2023/01/28 00:05:50;;;;;;;14.38;12.88;;;0.60;99.90;;;;;;5047062;28;20310;-76
2023/01/28 00:08:17;;;;;;;15.27;12.55;;;0.60;99.90;;;;;;5049154;28;20246;-75
2023/01/28 00:10:44;;;;;;;14.80;12.80;;;0.60;99.90;;;;;;5054406;28;20645;-75
2023/01/28 00:13:13;;;;;;;14.70;12.75;;;0.60;99.90;;;;;;5046907;28;20238;-76
2023/01/28 00:15:40;;;;;;;16.13;13.98;;;0.60;99.90;;;;;;5046756;28;20210;-74
2023/01/28 00:18:07;;;;;;;15.13;12.93;;;0.60;99.90;;;;;;5047491;28;20310;-74
2023/01/28 00:20:35;;;;;;;16.05;13.32;;;0.50;99.90;;;;;;5050853;28;20781;-75
2023/01/28 00:23:02;;;;;;;15.35;13.20;;;0.60;99.90;;;;;;5050638;28;20282;-75
2023/01/28 00:25:29;;;;;;;14.23;12.73;;;0.60;99.90;;;;;;5058269;28;20209;-73
2023/01/28 00:27:56;;;;;;;15.60;13.45;;;0.60;99.90;;;;;;5059352;28;20230;-74
2023/01/28 00:30:23;;;;;;;16.45;13.18;;;0.60;99.90;;;;;;5054363;28;20250;-76
2023/01/28 00:32:50;;;;;;;16.15;13.35;;;0.60;99.90;;;;;;5054310;28;20230;-75
2023/01/28 00:35:17;;;;;;;13.93;12.43;;;0.60;99.90;;;;;;5042707;28;20222;-75
2023/01/28 00:37:47;;;;;;;13.43;12.00;;;0.60;99.90;;;;;;5053101;28;20285;-75
2023/01/28 00:40:14;;;;;;;14.82;13.02;;;0.70;99.90;;;;;;5039699;22;20227;-70
2023/01/28 00:42:41;;;;;;;15.18;12.88;;;0.70;99.90;;;;;;5017821;28;20258;-70
2023/01/28 00:45:08;;;;;;;13.27;11.88;;;0.60;99.90;;;;;;5021544;28;20331;-70
2023/01/28 00:47:35;;;;;;;13.90;12.32;;;0.60;99.90;;;;;;5023376;28;20318;-70
2023/01/28 00:50:03;;;;;;;13.20;11.85;;;0.60;99.90;;;;;;5023125;28;20322;-71
2023/01/28 00:52:30;;;;;;;12.32;11.02;;;0.60;99.90;;;;;;5027104;28;20762;-71
2023/01/28 00:54:58;;;;;;;14.85;13.23;;;0.70;99.90;;;;;;5025478;28;20281;-70
2023/01/28 00:57:25;;;;;;;14.25;12.73;;;0.70;99.90;;;;;;5025364;28;20210;-71
2023/01/28 00:59:52;;;;;;;13.88;12.32;;;0.70;99.90;;;;;;5019418;28;20310;-70
2023/01/28 01:02:19;;;;;;;16.52;12.55;;;0.70;99.90;;;;;;5026352;28;20294;-70
2023/01/28 01:04:53;;;;;;;13.55;12.10;;;0.80;99.90;;;;;;5023321;28;20806;-71
2023/01/28 01:07:30;;;;;;;16.70;14.30;;;0.80;99.90;;;;;;5024509;28;20195;-71
2023/01/28 01:09:59;;;;;;;13.80;12.30;;;0.90;99.90;;;;;;5024697;28;20222;-71
2023/01/28 01:12:26;;;;;;;14.23;12.65;;;0.90;99.90;;;;;;5026376;28;20196;-70
2023/01/28 01:14:53;;;;;;;15.57;12.80;;;1.00;99.90;;;;;;5023176;28;20299;-70
2023/01/28 01:17:20;;;;;;;15.07;13.40;;;1.00;99.90;;;;;;5026794;28;20647;-70
2023/01/28 01:19:47;;;;;;;13.52;12.13;;;1.00;99.90;;;;;;5025295;28;20767;-70
2023/01/28 01:22:14;;;;;;;14.10;11.85;;;1.00;99.90;;;;;;5022883;28;20280;-71
2023/01/28 01:24:41;;;;;;;14.43;12.48;;;1.00;99.90;;;;;;5022682;28;20310;-70
2023/01/28 01:27:09;;;;;;;14.18;12.32;;;1.00;99.90;;;;;;5026662;28;20416;-71
2023/01/28 01:29:36;;;;;;;13.50;12.10;;;1.00;99.90;;;;;;5023610;28;20254;-70
2023/01/28 01:32:03;;;;;;;14.25;12.32;;;1.00;99.90;;;;;;5025173;28;20246;-71
2023/01/28 01:34:30;;;;;;;14.55;12.98;;;1.00;99.90;;;;;;5024606;28;20254;-70
2023/01/28 01:36:57;;;;;;;15.95;13.90;;;1.00;99.90;;;;;;5024975;28;20270;-70
2023/01/28 01:39:24;;;;;;;16.73;13.70;;;1.00;99.90;;;;;;5017259;28;20315;-70
2023/01/28 01:41:51;;;;;;;14.38;12.88;;;0.90;99.90;;;;;;5024483;28;20287;-70
2023/01/28 01:44:55;;;;;;;14.15;11.95;;;0.90;99.90;;;;;;5021399;28;20666;-70
2023/01/28 01:47:25;;;;;;;12.52;11.23;;;0.80;99.90;;;;;;5021930;28;20194;-70
2023/01/28 01:49:52;;;;;;;14.00;12.40;;;0.80;99.90;;;;;;5022935;28;20306;-70
2023/01/28 01:52:24;;;;;;;14.98;12.43;;;0.80;99.90;;;;;;5023328;28;20305;-70
2023/01/28 01:54:55;;;;;;;13.88;11.73;;;0.70;99.90;;;;;;5022253;28;20219;-70
2023/01/28 01:57:26;;;;;;;13.90;12.50;;;0.70;99.90;;;;;;5021074;28;20729;-70
2023/01/28 02:00:03;;;;;;;14.85;12.05;;;0.70;99.90;;;;;;5022716;28;20251;-70
2023/01/28 02:02:31;;;;;;;15.30;12.57;;;0.70;99.90;;;;;;5021242;28;20611;-70
2023/01/28 02:04:58;;;;;;;13.35;11.90;;;0.70;99.90;;;;;;5023370;28;20621;-70
2023/01/28 02:07:25;;;;;;;13.23;11.82;;;0.80;99.90;;;;;;5022474;28;20286;-70
2023/01/28 02:09:59;;;;;;;13.95;12.00;;;0.80;99.90;;;;;;5025942;28;20306;-70
2023/01/28 02:12:30;;;;;;;14.20;12.25;;;0.80;99.90;;;;;;5019929;28;20268;-70
2023/01/28 02:15:04;;;;;;;14.20;12.73;;;0.80;99.90;;;;;;5023724;28;20362;-70
2023/01/28 02:17:32;;;;;;;15.75;12.75;;;0.80;99.90;;;;;;5019433;28;20283;-70
2023/01/28 02:20:01;;;;;;;14.75;12.77;;;0.80;99.90;;;;;;5024439;28;20311;-70
2023/01/28 02:23:15;;;;;;;14.55;12.55;;;0.70;99.90;;;;;;5026771;28;20655;-70
2023/01/28 02:26:17;;;;;;;13.50;11.43;;;0.60;99.90;;;;;;4992370;28;20294;-71
2023/01/28 02:28:51;;;;;;;14.15;11.23;;;0.50;99.90;;;;;;5022716;28;20231;-70
2023/01/28 02:31:23;;;;;;;12.55;11.07;;;0.50;99.90;;;;;;5024403;28;20306;-70
2023/01/28 02:33:56;;;;;;;12.98;11.52;;;0.50;99.90;;;;;;5021651;28;21187;-70
2023/01/28 02:36:29;;;;;;;12.77;11.43;;;0.50;99.90;;;;;;5026680;28;20306;-70
2023/01/28 02:38:59;;;;;;;13.35;11.43;;;0.50;99.90;;;;;;5022041;28;20658;-70
2023/01/28 02:41:38;;;;;;;12.35;10.98;;;0.50;99.90;;;;;;5023078;28;20410;-71
2023/01/28 02:44:06;;;;;;;11.95;10.52;;;0.50;99.90;;;;;;5024792;28;20721;-71
2023/01/28 02:49:24;;;;;;;12.02;10.63;;;0.50;99.90;;;;;;5023284;28;20345;-71
2023/01/28 02:52:12;;;;;;;12.20;10.95;;;0.50;99.90;;;;;;5024789;28;20291;-71
2023/01/28 02:54:44;;;;;;;13.02;11.35;;;0.50;99.90;;;;;;5019882;28;20243;-71
2023/01/28 02:57:21;;;;;;;12.35;10.77;;;0.50;99.90;;;;;;5022363;28;20666;-71
2023/01/28 02:59:56;;;;;;;11.48;10.27;;;0.50;99.90;;;;;;5019786;28;20222;-71
2023/01/28 03:02:30;;;;;;;12.30;11.13;;;0.50;99.90;;;;;;5023440;28;20214;-71
2023/01/28 03:05:03;;;;;;;11.82;10.05;;;0.50;99.90;;;;;;5023310;28;20294;-71
2023/01/28 03:07:33;;;;;;;12.40;11.13;;;0.50;99.90;;;;;;5025081;28;20265;-71
2023/01/28 03:10:04;;;;;;;12.23;10.90;;;0.40;99.90;;;;;;5024287;28;20310;-71
2023/01/28 03:37:48;;;;;;;10.85;9.75;;;0.00;99.90;;;;;;5021573;28;20804;-71
2023/01/28 03:40:17;;;;;;;10.18;9.20;;;0.00;99.90;;;;;;5022811;28;20318;-71
2023/01/28 03:42:44;;;;;;;10.88;9.65;;;0.00;99.90;;;;;;5024848;28;20196;-71
2023/01/28 03:45:13;;;;;;;10.93;9.82;;;0.10;99.90;;;;;;5024278;28;20314;-71
2023/01/28 03:47:42;;;;;;;12.30;11.10;;;0.10;99.90;;;;;;5027656;28;20247;-71
2023/01/28 03:50:10;;;;;;;12.45;11.15;;;0.10;99.90;;;;;;5025103;28;20230;-72
2023/01/28 03:52:37;;;;;;;11.00;9.82;;;0.10;99.90;;;;;;5028901;28;20238;-71
2023/01/28 03:55:12;;;;;;;10.82;9.70;;;0.10;99.90;;;;;;5023175;28;20309;-72
2023/01/28 03:57:39;;;;;;;10.75;9.65;;;0.10;99.90;;;;;;5023381;28;20640;-72
2023/01/28 04:00:09;;;;;;;11.30;10.07;;;0.10;99.90;;;;;;5026118;28;20334;-71
2023/01/28 04:02:38;;;;;;;11.13;10.02;;;0.10;99.90;;;;;;5026224;28;20203;-71
2023/01/28 04:05:11;;;;;;;12.07;9.73;;;0.10;99.90;;;;;;5026020;28;20634;-71
2023/01/28 04:07:38;;;;;;;11.40;10.05;;;0.10;99.90;;;;;;5023129;28;20196;-71
2023/01/28 04:10:08;;;;;;;10.55;9.48;;;0.00;99.90;;;;;;5025601;28;20322;-72
2023/01/28 04:12:36;;;;;;;10.93;9.50;;;0.00;99.90;;;;;;5026859;28;20199;-72
2023/01/28 04:15:14;;;;;;;10.60;9.32;;;0.00;99.90;;;;;;5027542;28;20223;-72
2023/01/28 04:17:44;;;;;;;9.68;8.68;;;-0.10;99.90;;;;;;5023094;28;20273;-71
2023/01/28 04:20:14;;;;;;;10.80;9.60;;;0.00;99.90;;;;;;5023514;28;20227;-72
2023/01/28 04:22:41;;;;;;;9.00;8.10;;;-0.10;99.90;;;;;;5023688;28;20231;-71
2023/01/28 04:25:09;;;;;;;9.55;8.60;;;-0.10;99.90;;;;;;5026400;28;20659;-71
2023/01/28 04:27:36;;;;;;;9.23;8.32;;;-0.10;99.90;;;;;;5023969;28;20283;-71
2023/01/28 04:30:03;;;;;;;9.20;8.25;;;-0.10;99.90;;;;;;5022254;28;20310;-72
2023/01/28 04:32:30;;;;;;;8.48;7.68;;;-0.10;99.90;;;;;;5026811;28;20290;-72
2023/01/28 04:34:57;;;;;;;9.30;8.30;;;-0.20;99.90;;;;;;5028605;28;20247;-72
2023/01/28 04:37:26;;;;;;;8.70;7.82;;;-0.20;99.90;;;;;;5021788;28;20224;-71
2023/01/28 04:39:52;;;;;;;8.52;7.72;;;-0.20;99.90;;;;;;5027914;28;20287;-72
2023/01/28 04:42:19;;;;;;;9.25;8.13;;;-0.20;99.90;;;;;;5023121;28;20267;-72
2023/01/28 04:44:46;;;;;;;8.95;8.05;;;-0.20;99.90;;;;;;5026542;28;20306;-71
2023/01/28 04:47:13;;;;;;;8.38;7.57;;;-0.20;99.90;;;;;;5027701;28;20242;-72
2023/01/28 04:49:40;;;;;;;9.10;8.20;;;-0.20;99.90;;;;;;5025991;28;20289;-71
2023/01/28 04:52:07;;;;;;;7.72;7.03;;;-0.20;99.90;;;;;;5024402;28;20278;-71
2023/01/28 04:54:35;;;;;;;8.07;7.38;;;-0.20;99.90;;;;;;5026639;28;20342;-72
2023/01/28 04:57:02;;;;;;;8.15;7.45;;;-0.30;99.90;;;;;;5024726;28;20282;-72
2023/01/28 04:59:29;;;;;;;8.30;7.60;;;-0.30;99.90;;;;;;5022208;28;20251;-71
2023/01/28 05:01:56;;;;;;;8.50;7.68;;;-0.30;99.90;;;;;;5025699;28;20571;-72
2023/01/28 05:04:23;;;;;;;8.02;7.32;;;-0.30;99.90;;;;;;5025861;28;20246;-71
2023/01/28 05:06:50;;;;;;;8.32;7.63;;;-0.30;99.90;;;;;;5022661;28;20764;-71
2023/01/28 05:09:17;;;;;;;7.63;7.03;;;-0.30;99.90;;;;;;5027161;28;20333;-71
2023/01/28 05:11:45;;;;;;;8.20;7.50;;;-0.30;99.90;;;;;;5027073;28;20641;-71
2023/01/28 05:14:12;;;;;;;8.75;7.95;;;-0.30;99.90;;;;;;5028595;28;20223;-71
2023/01/28 05:16:39;;;;;;;7.72;7.03;;;-0.30;99.90;;;;;;5023171;28;20299;-71
2023/01/28 05:19:06;;;;;;;7.90;7.20;;;-0.30;99.90;;;;;;5025051;28;20251;-71
2023/01/28 05:21:33;;;;;;;8.38;7.57;;;-0.40;99.90;;;;;;5023098;28;20298;-71
2023/01/28 05:24:00;;;;;;;7.88;7.07;;;-0.40;99.90;;;;;;5025161;28;20283;-71
2023/01/28 05:26:27;;;;;;;8.68;7.88;;;-0.30;99.90;;;;;;5021582;28;20302;-71
2023/01/28 05:28:55;;;;;;;8.18;7.38;;;-0.30;99.90;;;;;;5024722;28;20283;-71
2023/01/28 05:31:22;;;;;;;8.52;7.72;;;-0.40;99.90;;;;;;5025842;28;20303;-71
2023/01/28 05:33:48;;;;;;;8.32;7.55;;;-0.40;99.90;;;;;;5022753;28;20292;-71
2023/01/28 05:36:15;;;;;;;8.32;7.57;;;-0.40;99.90;;;;;;5026164;28;20306;-71
2023/01/28 05:38:42;;;;;;;8.68;7.88;;;-0.40;99.90;;;;;;5016536;28;20279;-71
2023/01/28 05:41:09;;;;;;;8.38;7.68;;;-0.50;99.90;;;;;;5024040;28;20315;-70
2023/01/28 05:43:36;;;;;;;7.13;6.53;;;-0.50;99.90;;;;;;5022730;28;20294;-71
2023/01/28 05:46:05;;;;;;;8.07;7.35;;;-0.50;99.90;;;;;;5023370;28;20239;-71
2023/01/28 05:48:32;;;;;;;7.95;7.25;;;-0.50;99.90;;;;;;5022899;28;20204;-71
2023/01/28 05:50:59;;;;;;;8.10;7.30;;;-0.50;99.90;;;;;;5024463;28;20307;-71
2023/01/28 05:53:26;;;;;;;8.10;7.40;;;-0.50;99.90;;;;;;5022983;28;20303;-71
2023/01/28 05:55:53;;;;;;;7.63;6.93;;;-0.60;99.90;;;;;;5025461;28;20296;-71
2023/01/28 05:58:21;;;;;;;7.93;7.22;;;-0.60;99.90;;;;;;5025652;28;20688;-71
2023/01/28 06:00:48;;;;;;;7.45;6.75;;;-0.60;99.90;;;;;;5024799;28;20780;-71
2023/01/28 06:03:16;;;;;;;8.18;7.47;;;-0.60;99.90;;;;;;5023081;28;20301;-71
2023/01/28 06:05:43;;;;;;;7.93;7.13;;;-0.60;99.90;;;;;;5024703;28;20243;-71
2023/01/28 06:08:10;;;;;;;7.28;6.65;;;-0.60;99.90;;;;;;5027235;28;20290;-71
2023/01/28 06:10:37;;;;;;;8.00;7.35;;;-0.60;99.90;;;;;;5023746;28;20314;-71
2023/01/28 06:13:04;;;;;;;8.32;7.53;;;-0.60;99.90;;;;;;5022321;28;20239;-71
2023/01/28 06:15:30;;;;;;;7.85;7.15;;;-0.60;99.90;;;;;;5025153;28;20774;-71
2023/01/28 06:17:57;;;;;;;7.82;7.13;;;-0.60;99.90;;;;;;5023222;28;20223;-71
2023/01/28 06:20:26;;;;;;;8.02;7.22;;;-0.60;99.90;;;;;;5023332;28;20219;-71
2023/01/28 06:22:53;;;;;;;6.75;6.15;;;-0.60;99.90;;;;;;5024450;28;20223;-71
2023/01/28 06:25:20;;;;;;;7.95;7.25;;;-0.60;99.90;;;;;;5023010;28;21098;-71
2023/01/28 06:27:47;;;;;;;7.43;6.75;;;-0.60;99.90;;;;;;5021415;28;20648;-71
2023/01/28 06:30:14;;;;;;;6.90;6.30;;;-0.60;99.90;;;;;;5024239;28;20324;-71
2023/01/28 06:32:41;;;;;;;6.88;6.28;;;-0.60;99.90;;;;;;5022972;28;20597;-71
2023/01/28 06:35:08;;;;;;;6.50;6.00;;;-0.60;99.90;;;;;;5022241;28;20289;-71
2023/01/28 06:37:38;;;;;;;7.38;6.75;;;-0.60;99.90;;;;;;5023366;28;20203;-72
2023/01/28 06:40:06;;;;;;;7.25;6.63;;;-0.60;99.90;;;;;;5042551;22;20230;-74
2023/01/28 06:42:33;;;;;;;7.20;6.60;;;-0.60;99.90;;;;;;5039484;28;20641;-74
2023/01/28 06:45:00;;;;;;;7.30;6.70;;;-0.60;99.90;;;;;;5038943;28;20306;-74
2023/01/28 06:47:26;;;;;;;6.90;6.28;;;-0.60;99.90;;;;;;5043647;28;20226;-74
2023/01/28 06:49:53;;;;;;;8.55;7.70;;;-0.60;99.90;;;;;;5045800;28;20772;-73
2023/01/28 06:52:20;;;;;;;7.50;6.90;;;-0.60;99.90;;;;;;5040438;28;20294;-71
2023/01/28 06:54:49;;;;;;;8.27;7.47;;;-0.60;99.90;;;;;;5042020;28;20314;-74
2023/01/28 06:57:15;;;;;;;7.35;6.70;;;-0.60;99.90;;;;;;5041536;28;20238;-74
2023/01/28 06:59:42;;;;;;;7.15;6.50;;;-0.60;99.90;;;;;;5030526;28;20610;-75
2023/01/28 07:02:11;;;;;;;7.50;6.80;;;-0.60;99.90;;;;;;5037886;28;20320;-74
2023/01/28 07:04:37;;;;;;;7.18;6.68;;;-0.50;99.90;;;;;;5041923;28;20522;-74
2023/01/28 07:07:04;;;;;;;7.32;6.72;;;-0.50;99.90;;;;;;5042971;28;20282;-74
2023/01/28 07:09:31;;;;;;;7.07;6.47;;;-0.40;99.90;;;;;;5040262;28;20272;-74
2023/01/28 07:12:04;;;;;;;7.05;6.55;;;-0.40;99.90;;;;;;5040711;28;20283;-74
2023/01/28 07:14:30;;;;;;;6.68;6.18;;;-0.30;99.90;;;;;;5043661;28;20818;-74
2023/01/28 07:16:57;;;;;;;7.25;6.65;;;-0.30;99.90;;;;;;5045858;28;20285;-74
2023/01/28 07:19:24;;;;;;;7.00;6.40;;;-0.30;99.90;;;;;;5051444;28;20194;-74
2023/01/28 07:21:51;;;;;;;6.50;6.05;;;-0.30;99.90;;;;;;5049249;28;20281;-74
2023/01/28 07:24:18;;;;;;;5.85;5.35;;;-0.20;99.90;;;;;;5048771;28;20649;-74
2023/01/28 07:26:47;;;;;;;5.88;5.47;;;-0.20;99.90;;;;;;5048289;28;20270;-75
2023/01/28 07:29:15;;;;;;;6.00;5.53;;;-0.20;99.90;;;;;;5046646;28;20195;-74
2023/01/28 07:31:42;;;;;;;6.10;5.60;;;-0.10;99.90;;;;;;5048333;28;21623;-74
2023/01/28 07:34:09;;;;;;;6.00;5.60;;;0.00;99.90;;;;;;5047475;28;20238;-73
2023/01/28 07:36:36;;;;;;;6.72;6.13;;;0.00;99.90;;;;;;5047494;28;20299;-74
2023/01/28 07:39:04;;;;;;;6.43;5.93;;;0.10;99.90;;;;;;5048427;28;20696;-74
2023/01/28 07:41:30;;;;;;;5.43;5.03;;;0.10;99.90;;;;;;5047478;28;20314;-74
2023/01/28 07:43:57;;;;;;;6.03;5.60;;;0.10;99.90;;;;;;5051217;28;20282;-74
2023/01/28 07:46:26;;;;;;;7.03;6.43;;;0.20;99.90;;;;;;5048342;28;20306;-74
2023/01/28 07:48:52;;;;;;;7.45;6.85;;;0.20;99.90;;;;;;5050167;28;20396;-74
2023/01/28 07:51:19;;;;;;;6.70;6.20;;;0.20;99.90;;;;;;5042845;28;20215;-74
2023/01/28 07:53:46;;;;;;;7.32;6.63;;;0.30;99.90;;;;;;5045311;28;20290;-74
2023/01/28 07:56:13;;;;;;;7.40;6.80;;;0.40;99.90;;;;;;5045225;28;20618;-74
2023/01/28 07:58:40;;;;;;;7.30;6.57;;;0.40;99.90;;;;;;5049321;28;20278;-74
2023/01/28 08:01:07;;;;;;;7.28;6.57;;;0.50;99.90;;;;;;5048182;28;20254;-73
2023/01/28 08:03:35;;;;;;;7.90;7.20;;;0.70;99.90;;;;;;5043237;28;20286;-74
2023/01/28 08:06:02;;;;;;;8.55;7.70;;;0.90;99.90;;;;;;5047206;28;20756;-74
2023/01/28 08:08:29;;;;;;;8.07;7.28;;;1.30;99.90;;;;;;5047921;28;20219;-74
2023/01/28 08:10:56;;;;;;;7.03;6.35;;;1.70;99.90;;;;;;5049096;28;20297;-74
2023/01/28 08:13:23;;;;;;;7.68;6.85;;;2.20;99.90;;;;;;5045228;28;20286;-74
2023/01/28 08:15:50;;;;;;;7.90;7.20;;;2.90;99.90;;;;;;5045208;28;20287;-75
2023/01/28 08:18:17;;;;;;;7.43;6.80;;;3.60;99.90;;;;;;5046882;28;20281;-75
2023/01/28 08:20:46;;;;;;;8.02;7.30;;;4.10;99.90;;;;;;5045828;28;20722;-74
2023/01/28 08:23:15;;;;;;;10.27;8.80;;;4.50;99.90;;;;;;5046852;28;20241;-75
2023/01/28 08:25:42;;;;;;;7.93;7.22;;;4.70;99.90;;;;;;5045054;28;20302;-75
2023/01/28 08:28:09;;;;;;;7.60;6.88;;;5.00;99.90;;;;;;5040292;28;20309;-74
2023/01/28 08:30:37;;;;;;;12.45;7.97;;;5.10;99.90;;;;;;5046201;28;20298;-74
2023/01/28 08:33:05;;;;;;;9.98;7.40;;;5.30;99.90;;;;;;5048166;28;20203;-75
2023/01/28 08:35:33;;;;;;;7.47;6.78;;;6.00;99.90;;;;;;5047732;28;20230;-74
2023/01/28 08:38:03;;;;;;;8.05;7.35;;;6.30;99.90;;;;;;5055362;28;20700;-75
2023/01/28 08:40:30;;;;;;;8.88;7.88;;;6.60;99.90;;;;;;5045266;28;20764;-75
2023/01/28 08:42:57;;;;;;;9.70;8.70;;;7.00;99.90;;;;;;5042807;28;20289;-76
2023/01/28 08:45:26;;;;;;;8.48;7.60;;;7.30;99.90;;;;;;5045939;28;20297;-75
2023/01/28 08:47:55;;;;;;;8.75;7.90;;;7.40;99.90;;;;;;5046216;28;20637;-75
2023/01/28 08:50:24;;;;;;;10.45;7.47;;;7.40;99.90;;;;;;5045085;28;20280;-74
2023/01/28 08:52:55;;;;;;;9.63;8.63;;;7.20;99.90;;;;;;5045544;28;20252;-76
2023/01/28 08:55:24;;;;;;;10.52;9.30;;;7.20;99.90;;;;;;5047333;28;20290;-75
2023/01/28 08:57:51;;;;;;;11.43;9.05;;;7.30;99.90;;;;;;5044890;28;20238;-75
2023/01/28 09:00:18;;;;;;;8.25;7.43;;;7.50;99.90;;;;;;5043194;28;20310;-78
2023/01/28 09:02:45;;;;;;;7.35;6.65;;;7.90;99.90;;;;;;5043876;28;20301;-75
2023/01/28 09:05:12;;;;;;;7.38;6.70;;;7.90;99.90;;;;;;5037373;28;20306;-76
2023/01/28 09:07:39;;;;;;;10.13;8.02;;;8.30;99.90;;;;;;5039018;28;20294;-76
2023/01/28 09:10:07;;;;;;;8.13;7.32;;;8.70;99.90;;;;;;5041212;28;20334;-77
2023/01/28 09:12:36;;;;;;;7.35;6.65;;;9.10;99.90;;;;;;5040981;28;20194;-76
2023/01/28 09:15:03;;;;;;;7.15;6.45;;;9.30;99.90;;;;;;5042226;28;20308;-77
2023/01/28 09:17:30;;;;;;;6.50;5.90;;;9.20;99.90;;;;;;5050410;28;20226;-75
2023/01/28 09:19:57;;;;;;;6.20;5.60;;;9.30;99.90;;;;;;5043984;28;20305;-76
2023/01/28 09:22:24;;;;;;;7.82;5.53;;;9.40;99.90;;;;;;5042560;28;20644;-76
2023/01/28 09:24:51;;;;;;;5.95;5.43;;;9.80;99.90;;;;;;5043584;28;20298;-76
2023/01/28 09:27:18;;;;;;;6.40;5.80;;;10.10;99.90;;;;;;5048009;28;20215;-76
2023/01/28 09:29:46;;;;;;;6.28;5.68;;;10.00;99.90;;;;;;5042024;28;20313;-76
2023/01/28 09:32:13;;;;;;;6.07;5.45;;;10.30;99.90;;;;;;5058985;28;20987;-76
2023/01/28 09:34:40;;;;;;;5.90;5.30;;;11.10;99.90;;;;;;5043404;28;20238;-76
2023/01/28 09:37:07;;;;;;;6.15;5.55;;;11.90;99.90;;;;;;5044313;28;20260;-75
2023/01/28 09:39:34;;;;;;;5.78;5.22;;;13.40;96.60;;;;;;5037192;28;20306;-74
2023/01/28 09:42:16;;;;;;;5.85;5.32;;;14.90;92.80;;;;;;5044700;28;20658;-75
2023/01/28 09:44:57;;;;;;;6.88;6.18;;;16.10;81.50;;;;;;5045330;28;20222;-75
2023/01/28 09:47:30;;;;;;;6.80;6.20;;;17.10;72.00;;;;;;5044576;28;20252;-75
2023/01/28 09:50:02;;;;;;;6.25;5.53;;;16.50;70.80;;;;;;5044743;28;20844;-75
2023/01/28 09:52:34;;;;;;;5.82;5.40;;;15.40;71.50;;;;;;5047311;28;20191;-75
2023/01/28 09:55:04;;;;;;;6.43;5.82;;;13.00;76.60;;;;;;5045727;28;20223;-75
2023/01/28 09:57:38;;;;;;;6.32;5.70;;;11.10;82.40;;;;;;5044854;28;20285;-74
2023/01/28 10:00:14;;;;;;;8.27;5.57;;;10.80;87.00;;;;;;5044858;28;20891;-75
2023/01/28 10:02:52;;;;;;;5.40;4.90;;;11.00;97.00;;;;;;5042798;28;20322;-75
2023/01/28 10:05:28;;;;;;;6.72;6.03;;;11.00;97.90;;;;;;5046597;28;20234;-75
2023/01/28 10:08:11;;;;;;;5.78;5.28;;;11.30;96.70;;;;;;5040459;28;20241;-75
2023/01/28 10:10:43;;;;;;;6.82;6.22;;;11.60;96.50;;;;;;5043614;28;20318;-74
2023/01/28 10:13:23;;;;;;;7.43;6.72;;;11.80;96.50;;;;;;5047683;28;20227;-73
2023/01/28 10:16:13;;;;;;;6.70;6.05;;;11.40;96.70;;;;;;5042728;28;20327;-73
2023/01/28 10:18:46;;;;;;;6.05;5.55;;;11.10;97.00;;;;;;5043301;28;20220;-73
2023/01/28 10:21:17;;;;;;;6.90;6.25;;;10.70;96.90;;;;;;5045913;28;20313;-75
2023/01/28 10:23:55;;;;;;;5.90;5.30;;;10.40;98.40;;;;;;5046925;28;20222;-75
2023/01/28 10:26:25;;;;;;;6.47;5.85;;;10.30;97.70;;;;;;5050204;28;20253;-74
2023/01/28 10:28:58;;;;;;;6.47;5.78;;;10.10;98.00;;;;;;5047779;28;20249;-75
2023/01/28 10:31:32;;;;;;;7.05;6.38;;;10.00;99.50;;;;;;5043354;28;20450;-75
2023/01/28 10:34:00;;;;;;;5.60;4.90;;;9.70;99.20;;;;;;5040197;28;20568;-73
2023/01/28 10:36:27;;;;;;;5.60;5.10;;;9.20;98.80;;;;;;5045347;28;20246;-73
2023/01/28 10:38:54;;;;;;;5.95;5.40;;;9.00;99.90;;;;;;5044289;28;20293;-73
2023/01/28 10:41:24;;;;;;;6.60;6.03;;;8.80;99.90;;;;;;5047563;28;20297;-73
2023/01/28 10:43:51;;;;;;;6.57;5.30;;;8.70;99.90;;;;;;5040778;28;20246;-73
2023/01/28 10:46:23;;;;;;;5.75;5.25;;;8.90;99.90;;;;;;5046767;28;20293;-73
2023/01/28 10:48:59;;;;;;;7.10;5.75;;;9.10;99.90;;;;;;5042970;28;20289;-73
2023/01/28 10:51:34;;;;;;;5.25;4.85;;;9.10;99.90;;;;;;5043201;28;20320;-73
2023/01/28 10:54:01;;;;;;;6.35;5.28;;;8.90;99.40;;;;;;5044204;28;20625;-73
2023/01/28 10:56:31;;;;;;;5.30;4.80;;;8.90;99.90;;;;;;5038585;28;20222;-75
2023/01/28 10:59:01;;;;;;;5.18;4.78;;;9.10;99.90;;;;;;5036023;28;20297;-73
2023/01/28 11:01:43;;;;;;;5.32;4.82;;;9.10;99.90;;;;;;5044988;28;20280;-73
2023/01/28 11:04:19;;;;;;;6.78;6.18;;;9.00;98.50;;;;;;5039626;28;20707;-73
2023/01/28 11:06:59;;;;;;;5.68;5.20;;;8.40;96.20;;;;;;5044451;28;20190;-72
2023/01/28 11:09:29;;;;;;;5.70;5.20;;;7.70;97.30;;;;;;5045825;28;20222;-72
2023/01/28 11:11:57;;;;;;;5.38;4.88;;;7.60;98.00;;;;;;5046085;28;20229;-73
2023/01/28 11:14:25;;;;;;;5.35;4.85;;;7.40;97.70;;;;;;5040861;28;20625;-71
2023/01/28 11:16:54;;;;;;;6.57;5.65;;;7.40;98.00;;;;;;5039363;28;20306;-72
2023/01/28 11:19:27;;;;;;;5.35;4.85;;;7.20;97.40;;;;;;5040644;28;20234;-72
2023/01/28 11:21:57;;;;;;;4.90;4.43;;;7.10;98.50;;;;;;5055658;28;20261;-71
2023/01/28 11:24:28;;;;;;;4.43;4.03;;;6.90;97.80;;;;;;5046391;28;20333;-72
2023/01/28 11:26:57;;;;;;;6.43;5.57;;;6.80;97.10;;;;;;5036701;28;20314;-72
2023/01/28 11:29:28;;;;;;;7.13;6.38;;;6.90;98.50;;;;;;5038740;28;20233;-72
2023/01/28 11:31:56;;;;;;;6.18;5.57;;;7.00;99.10;;;;;;5041749;28;20297;-71
2023/01/28 11:34:27;;;;;;;7.07;5.95;;;7.00;99.10;;;;;;5039260;28;20294;-72
2023/01/28 11:36:55;;;;;;;6.30;5.43;;;7.00;98.50;;;;;;5042017;28;20651;-72
2023/01/28 11:39:27;;;;;;;5.43;4.93;;;7.10;98.30;;;;;;5036817;28;20278;-72
2023/01/28 11:41:54;;;;;;;5.43;4.90;;;7.10;97.70;;;;;;5040792;28;20674;-71
2023/01/28 11:44:23;;;;;;;5.30;4.90;;;7.10;97.60;;;;;;5035358;28;20286;-72
2023/01/28 11:47:13;;;;;;;5.40;4.90;;;7.10;97.60;;;;;;5036638;28;20218;-73
2023/01/28 11:50:04;;;;;;;6.22;5.72;;;7.00;96.50;;;;;;5039723;28;20222;-72
2023/01/28 11:52:43;;;;;;;6.45;5.15;;;6.90;97.00;;;;;;5042273;28;20215;-72
2023/01/28 11:55:24;;;;;;;5.50;5.00;;;6.70;96.10;;;;;;5041445;28;20258;-73
2023/01/28 11:58:03;;;;;;;4.80;4.47;;;6.70;97.00;;;;;;5037030;28;20195;-75
2023/01/28 12:00:41;;;;;;;5.50;5.00;;;6.70;96.70;;;;;;5039838;28;20298;-72
2023/01/28 12:03:52;;;;;;;5.53;5.03;;;6.70;96.60;;;;;;5043558;28;20219;-72
2023/01/28 12:06:40;;;;;;;5.25;4.78;;;6.70;95.90;;;;;;5002550;28;20357;-72
2023/01/28 12:09:16;;;;;;;5.30;4.82;;;6.70;96.50;;;;;;5036387;28;20199;-73
2023/01/28 12:12:13;;;;;;;4.95;4.55;;;6.70;97.20;;;;;;5033883;28;20295;-72
2023/01/28 12:15:18;;;;;;;5.00;4.57;;;6.60;96.90;;;;;;5040572;28;20234;-72
2023/01/28 12:17:56;;;;;;;5.18;4.68;;;6.70;95.70;;;;;;5055978;28;20194;-72
2023/01/28 12:20:30;;;;;;;5.90;5.40;;;6.60;95.50;;;;;;5042893;28;20285;-71
2023/01/28 12:23:12;;;;;;;5.72;4.95;;;6.50;97.20;;;;;;5042781;28;20817;-73
2023/01/28 12:25:55;;;;;;;6.22;5.63;;;6.50;97.50;;;;;;5045880;28;20210;-71
2023/01/28 12:28:38;;;;;;;6.10;5.50;;;6.50;97.90;;;;;;5048446;28;20286;-73
2023/01/28 12:31:27;;;;;;;5.95;5.45;;;6.60;97.90;;;;;;5047847;28;20508;-73
2023/01/28 12:34:22;;;;;;;5.95;5.45;;;6.60;98.20;;;;;;5048949;28;20187;-71
2023/01/28 12:36:59;;;;;;;7.43;6.72;;;6.70;98.20;;;;;;5047359;28;20206;-73
2023/01/28 12:39:39;;;;;;;6.65;5.97;;;6.60;98.60;;;;;;5045047;28;20285;-73
2023/01/28 12:42:12;;;;;;;7.35;6.03;;;6.70;99.00;;;;;;5060161;22;20226;-74
2023/01/28 12:44:44;;;;;;;17.13;6.65;;;6.70;99.30;;;;;;5027698;28;20319;-77
2023/01/28 12:47:16;;;;;;;8.77;5.95;;;7.00;99.10;;;;;;5054041;28;20222;-75
2023/01/28 12:49:48;;;;;;;5.63;5.22;;;7.10;98.30;;;;;;5062815;28;20217;-75
2023/01/28 12:52:20;;;;;;;5.70;5.28;;;7.20;98.10;;;;;;5062118;28;20222;-74
2023/01/28 12:54:58;;;;;;;6.20;5.70;;;7.50;97.60;;;;;;5063571;28;20770;-74
2023/01/28 12:57:27;;;;;;;6.93;6.32;;;7.50;98.10;;;;;;5068389;28;20345;-75
2023/01/28 13:00:18;;;;;;;6.05;5.55;;;7.40;98.20;;;;;;5063957;28;20300;-76
2023/01/28 13:02:52;;;;;;;6.18;5.57;;;7.60;98.20;;;;;;5059802;28;20455;-76
2023/01/28 13:05:23;;;;;;;6.13;5.53;;;8.20;97.60;;;;;;5061798;28;20276;-76
2023/01/28 13:07:56;;;;;;;9.45;7.13;;;8.50;97.00;;;;;;5060899;28;20766;-74
2023/01/28 13:10:29;;;;;;;7.93;6.80;;;8.80;98.60;;;;;;5063290;28;20309;-76
2023/01/28 13:12:57;;;;;;;7.60;6.70;;;8.90;98.50;;;;;;5061193;28;20289;-75
2023/01/28 13:15:25;;;;;;;7.18;6.47;;;9.00;98.30;;;;;;5045601;28;20350;-74
2023/01/28 13:17:56;;;;;;;8.13;6.93;;;8.60;97.90;;;;;;5062320;28;20309;-74
2023/01/28 13:20:35;;;;;;;6.60;6.05;;;8.30;98.50;;;;;;5060765;28;20653;-75
2023/01/28 13:23:04;;;;;;;6.22;5.72;;;8.10;96.90;;;;;;5026981;28;21230;-76
2023/01/28 13:25:35;;;;;;;6.53;5.93;;;8.30;97.50;;;;;;5062821;28;20225;-76
2023/01/28 13:28:04;;;;;;;6.53;5.93;;;8.50;97.00;;;;;;5061470;28;20340;-75
2023/01/28 13:30:32;;;;;;;7.07;6.38;;;8.70;97.00;;;;;;5062298;28;20308;-77
2023/01/28 13:33:02;;;;;;;10.82;7.10;;;8.50;97.80;;;;;;5064964;28;20471;-75